CheckWX is a tool to help pilots better visualize weather data.  It is not intended as a substitute for an official pre-flight weather briefing.

08:02:08 UTC

M19 METAR
Newport Regional Airport
Newport, Arkansas, USA
Current

1 hour ago

KM19 240656Z AUTO 13013KT 7SM -RA 07/07 A2992 RMK AO2 RAB14 SLP130 P0004 T00720072 $
Observed
Feb-24 @ 06:56 UTC
Wind
  • 130° at 13 KTS
Visibility
7 SM
Conditions
Light Rain
Temperature
C / 45°F
Dewpoint
C / 45°F
Humidity
100%
Altimeter
29.92" Hg
Pressure
1013.22 hPa
Current Rain
0.04"
Previous

1 hour ago

KM19 240639Z AUTO 13014KT 8SM -RA 07/07 A2992 RMK AO2 RAB14 P0001
Observed
Feb-24 @ 06:39 UTC
Wind
  • 130° at 14 KTS
Visibility
8 SM
Conditions
Light Rain
Temperature
C / 45°F
Dewpoint
C / 45°F
Humidity
100%
Altimeter
29.92" Hg
Pressure
1013.22 hPa
Current Rain
0.01"
Previous

2 hours ago

KM19 240556Z AUTO 14014KT 10SM BKN007 OVC018 07/07 A2995 RMK AO2 RAE54 SLP142 P0000 60009 T00720067 10072 20072 400940050 58032
Observed
Feb-24 @ 05:56 UTC
Wind
  • 140° at 14 KTS
Visibility
10 SM
Flight Rules
IFR
Cloud Levels
  • Broken at 700' AGL
  • Overcast at 1,800' AGL
Temperature
C / 45°F
Dewpoint
C / 45°F
Humidity
100%
Altimeter
29.95" Hg
Pressure
1014.22 hPa
Current Rain
0.01"